Time;durP1;ratioP1;P1;durP2;ratioP2;P2;SDS_P1;SDS_P2;PMS_P1;PMS_P2;Temp;Humidity;BMP_temperature;BMP_pressure;BME280_temperature;BME280_humidity;BME280_pressure;Samples;Min_cycle;Max_cycle;Signal;HPM_P1;HPM_P2
2022/05/06 00:00:24;;;;;;;3.45;2.15;;;;;;;7.60;100.00;101809.09;5062844;28;20411;-79
2022/05/06 00:02:57;;;;;;;3.45;2.25;;;;;;;7.62;100.00;101808.84;5049048;28;20435;-79
2022/05/06 00:05:31;;;;;;;3.35;2.25;;;;;;;7.66;100.00;101818.16;5063927;28;20419;-79
2022/05/06 00:08:05;;;;;;;4.87;2.60;;;;;;;7.60;100.00;101814.50;5048082;28;20473;-79
2022/05/06 00:10:38;;;;;;;4.15;2.40;;;;;;;7.55;100.00;101814.38;5080267;28;20456;-79
2022/05/06 00:13:11;;;;;;;4.47;2.60;;;;;;;7.58;100.00;101811.22;5046231;28;20434;-79
2022/05/06 00:15:44;;;;;;;4.63;2.28;;;;;;;7.58;100.00;101813.94;5065873;28;20423;-79
2022/05/06 00:18:18;;;;;;;4.18;2.50;;;;;;;7.52;100.00;101809.41;5058063;28;20418;-79
2022/05/06 00:20:48;;;;;;;3.88;2.50;;;;;;;7.53;100.00;101815.69;5053729;28;20409;-79
2022/05/06 00:23:21;;;;;;;3.95;2.47;;;;;;;7.57;100.00;101822.28;5052139;28;20424;-79
2022/05/06 00:25:55;;;;;;;18.83;4.00;;;;;;;7.53;100.00;101815.69;5067083;28;20422;-79
2022/05/06 00:28:28;;;;;;;22.58;4.25;;;;;;;7.53;100.00;101812.97;5056920;28;20458;-79
2022/05/06 00:31:02;;;;;;;8.93;3.15;;;;;;;7.42;100.00;101801.84;5042040;28;20413;-79
2022/05/06 00:33:35;;;;;;;5.35;2.70;;;;;;;7.44;100.00;101809.75;5047532;28;20791;-79
2022/05/06 00:36:10;;;;;;;4.47;2.63;;;;;;;7.42;100.00;101817.28;5062169;28;20429;-79
2022/05/06 00:38:43;;;;;;;4.35;2.70;;;;;;;7.37;100.00;101812.56;5052911;28;20423;-79
2022/05/06 00:41:17;;;;;;;3.92;2.40;;;;;;;7.36;100.00;101815.50;5070873;28;20880;-79
2022/05/06 00:43:51;;;;;;;4.75;2.80;;;;;;;7.33;100.00;101805.94;5062461;28;20419;-79
2022/05/06 00:46:20;;;;;;;4.45;2.55;;;;;;;7.34;100.00;101821.16;5060857;28;20429;-79
2022/05/06 00:48:55;;;;;;;3.70;2.55;;;;;;;7.36;100.00;101824.47;5047257;28;20404;-79
2022/05/06 00:51:25;;;;;;;5.30;2.70;;;;;;;7.28;100.00;101820.19;5042696;28;20766;-79
2022/05/06 00:53:58;;;;;;;4.38;2.50;;;;;;;7.31;100.00;101816.19;5049921;28;20420;-78
2022/05/06 00:56:31;;;;;;;3.90;2.50;;;;;;;7.20;100.00;101825.91;5052777;28;20424;-79
2022/05/06 00:58:59;;;;;;;4.30;2.65;;;;;;;7.18;100.00;101813.66;5045193;28;20424;-78
2022/05/06 01:01:29;;;;;;;3.60;2.50;;;;;;;7.19;100.00;101815.31;5052872;28;20420;-79
2022/05/06 01:04:05;;;;;;;4.22;2.70;;;;;;;7.13;100.00;101812.47;5047143;28;20431;-79
2022/05/06 01:06:36;;;;;;;4.88;2.83;;;;;;;7.09;100.00;101819.38;5070189;28;20392;-78
2022/05/06 01:09:04;;;;;;;5.05;2.90;;;;;;;7.00;100.00;101806.41;5046834;28;20772;-79
2022/05/06 01:11:37;;;;;;;4.20;2.70;;;;;;;7.08;100.00;101816.91;5037931;28;20434;-79
2022/05/06 01:14:12;;;;;;;4.90;2.80;;;;;;;7.03;100.00;101825.72;5047222;28;20494;-79
2022/05/06 01:16:45;;;;;;;4.50;2.90;;;;;;;6.95;100.00;101816.03;5042331;28;20413;-79
2022/05/06 01:19:18;;;;;;;5.53;2.92;;;;;;;6.90;100.00;101823.19;5067886;28;20424;-79
2022/05/06 01:21:54;;;;;;;4.15;2.80;;;;;;;6.90;100.00;101824.00;5064513;28;20438;-79
2022/05/06 01:24:28;;;;;;;4.47;2.75;;;;;;;6.90;100.00;101824.00;5049808;28;20426;-79
2022/05/06 01:27:04;;;;;;;5.00;2.95;;;;;;;6.80;100.00;101826.41;5050581;28;20423;-79
2022/05/06 01:29:39;;;;;;;5.03;2.97;;;;;;;6.77;100.00;101830.41;5059694;28;20757;-78
2022/05/06 01:32:13;;;;;;;5.05;3.00;;;;;;;6.74;100.00;101830.00;5067809;28;20419;-79
2022/05/06 01:34:51;;;;;;;5.03;3.00;;;;;;;6.72;100.00;101834.84;5070493;28;20408;-79
2022/05/06 01:37:23;;;;;;;4.25;2.80;;;;;;;6.68;100.00;101831.75;5044578;28;20424;-80
2022/05/06 01:40:00;;;;;;;5.32;3.08;;;;;;;6.67;100.00;101840.09;5047536;28;20423;-79
2022/05/06 01:42:40;;;;;;;4.30;2.80;;;;;;;6.60;100.00;101842.88;5046169;28;20411;-79
2022/05/06 01:45:11;;;;;;;5.53;3.13;;;;;;;6.63;100.00;101843.25;5051946;28;20888;-80
2022/05/06 01:47:47;;;;;;;5.22;3.05;;;;;;;6.67;100.00;101832.81;5044781;28;20412;-79
2022/05/06 01:50:25;;;;;;;5.67;3.10;;;;;;;6.67;100.00;101838.22;5048258;28;20438;-78
2022/05/06 01:53:02;;;;;;;4.63;2.90;;;;;;;6.63;100.00;101845.16;5052130;28;20776;-78
2022/05/06 01:55:37;;;;;;;5.50;3.13;;;;;;;6.59;100.00;101843.94;5041734;28;20777;-79
2022/05/06 01:58:07;;;;;;;4.47;2.90;;;;;;;6.56;100.00;101847.91;5070185;28;20421;-78
2022/05/06 02:00:41;;;;;;;5.83;3.20;;;;;;;6.56;100.00;101853.31;5041614;28;20446;-79
2022/05/06 02:06:14;;;;;;;5.07;3.20;;;;;;;6.57;100.00;101836.06;5046261;28;20413;-78
2022/05/06 02:08:56;;;;;;;5.25;3.22;;;;;;;6.55;100.00;101837.31;5044136;28;20396;-78
2022/05/06 02:11:48;;;;;;;4.53;3.10;;;;;;;6.56;100.00;101838.94;5038220;28;20433;-79
2022/05/06 02:14:27;;;;;;;5.25;3.17;;;;;;;6.51;100.00;101845.03;5041858;28;20452;-78
2022/05/06 02:17:31;;;;;;;5.32;3.45;;;;;;;6.44;100.00;101838.88;5053620;28;20427;-79
2022/05/06 02:20:22;;;;;;;4.55;3.25;;;;;;;6.39;100.00;101844.94;5038064;28;20426;-78
2022/05/06 02:22:50;;;;;;;6.05;3.40;;;;;;;6.39;100.00;101842.25;5060628;28;20421;-79
2022/05/06 02:25:31;;;;;;;5.32;3.35;;;;;;;6.42;100.00;101840.97;5051846;28;20412;-78
2022/05/06 02:28:10;;;;;;;5.05;3.22;;;;;;;6.48;100.00;101845.50;5037668;28;20516;-79
2022/05/06 02:33:34;;;;;;;5.20;3.25;;;;;;;6.34;100.00;101846.66;5042205;28;20418;-79
2022/05/06 02:36:19;;;;;;;5.55;3.40;;;;;;;6.29;100.00;101844.63;5049948;28;20427;-79
2022/05/06 02:38:52;;;;;;;4.70;3.10;;;;;;;6.30;100.00;101849.00;5045753;28;20959;-79
2022/05/06 02:41:27;;;;;;;5.40;3.40;;;;;;;6.29;100.00;101848.16;5045400;28;20471;-79
2022/05/06 02:44:02;;;;;;;6.30;3.63;;;;;;;6.23;100.00;101846.34;5046341;28;20431;-81
2022/05/06 02:46:41;;;;;;;5.45;3.45;;;;;;;6.25;100.00;101846.13;5044169;28;20403;-78
2022/05/06 02:49:14;;;;;;;6.10;3.77;;;;;;;6.26;100.00;101851.31;5048953;28;20431;-80
2022/05/06 02:51:47;;;;;;;6.07;3.70;;;;;;;6.29;100.00;101853.56;5064906;28;20426;-80
2022/05/06 02:54:23;;;;;;;5.43;3.57;;;;;;;6.26;100.00;101851.31;5050888;28;20412;-80
2022/05/06 02:56:57;;;;;;;5.68;3.67;;;;;;;6.26;100.00;101843.19;5046147;28;20427;-80
2022/05/06 02:59:27;;;;;;;4.57;3.20;;;;;;;6.29;100.00;101839.22;5050072;28;20410;-81
2022/05/06 03:02:00;;;;;;;5.75;3.60;;;;;;;6.17;100.00;101841.00;5046846;28;20427;-80
2022/05/06 03:04:36;;;;;;;5.57;3.50;;;;;;;5.99;100.00;101833.66;5045449;28;20424;-80
2022/05/06 03:07:07;;;;;;;5.17;3.20;;;;;;;6.06;100.00;101840.69;5050594;28;20415;-80
2022/05/06 03:09:47;;;;;;;5.20;3.20;;;;;;;6.08;100.00;101849.38;5056561;28;20417;-81
2022/05/06 03:12:26;;;;;;;4.70;3.20;;;;;;;6.04;100.00;101841.94;5047644;28;20414;-81
2022/05/06 03:15:08;;;;;;;5.35;3.20;;;;;;;6.04;100.00;101839.25;5039866;28;20411;-80
2022/05/06 03:17:47;;;;;;;4.90;3.10;;;;;;;5.88;100.00;101816.25;5051768;28;20412;-80
2022/05/06 03:20:21;;;;;;;7.80;3.10;;;;;;;6.01;100.00;101836.97;5044086;28;20516;-80
2022/05/06 03:22:54;;;;;;;7.10;3.45;;;;;;;5.99;100.00;101823.69;5052189;28;20421;-81
2022/05/06 03:25:27;;;;;;;4.45;3.03;;;;;;;6.07;100.00;101839.63;5052031;28;20045;-80
2022/05/06 03:28:03;;;;;;;4.57;3.20;;;;;;;6.01;100.00;101837.81;5061720;28;20041;-80
2022/05/06 03:30:39;;;;;;;5.60;3.75;;;;;;;6.02;100.00;101838.63;5067595;28;20048;-80
2022/05/06 03:33:31;;;;;;;4.22;3.42;;;;;;;6.02;100.00;101844.88;5073478;28;20051;-80
2022/05/06 03:36:17;;;;;;;5.93;4.40;;;;;;;6.09;100.00;101842.94;5049632;28;20059;-79
2022/05/06 03:39:03;;;;;;;7.78;4.63;;;;;;;6.15;100.00;101843.13;5054313;28;20056;-80
2022/05/06 03:41:37;;;;;;;10.07;5.45;;;;;;;6.19;100.00;101836.22;5053698;28;20040;-80
2022/05/06 03:44:12;;;;;;;7.05;6.13;;;;;;;6.23;100.00;101846.34;5047977;28;20049;-80
2022/05/06 03:46:49;;;;;;;8.27;7.47;;;;;;;6.27;100.00;101844.84;5046799;28;20048;-80
2022/05/06 03:49:30;;;;;;;9.35;8.55;;;;;;;6.24;100.00;101833.66;5050152;28;20049;-80
2022/05/06 03:52:04;;;;;;;11.40;10.50;;;;;;;6.29;100.00;101844.63;5046668;28;20053;-80
2022/05/06 03:54:33;;;;;;;12.57;11.65;;;;;;;6.35;100.00;101851.03;5069514;28;20052;-79
2022/05/06 03:57:07;;;;;;;13.88;12.88;;;;;;;6.35;100.00;101851.84;5049486;28;20052;-80
2022/05/06 03:59:41;;;;;;;16.25;15.10;;;;;;;6.36;100.00;101849.97;5043793;28;20051;-80
2022/05/06 04:02:18;;;;;;;16.80;15.70;;;;;;;6.39;100.00;101858.47;5053470;28;20060;-80
2022/05/06 04:04:47;;;;;;;18.73;17.50;;;;;;;6.41;100.00;101852.84;5046322;28;20045;-80
2022/05/06 04:07:22;;;;;;;19.30;18.08;;;;;;;6.41;100.00;101850.16;5049080;28;20040;-80
2022/05/06 04:09:55;;;;;;;19.67;18.45;;;;;;;6.47;100.00;101858.16;5065294;28;20064;-79
2022/05/06 04:12:30;;;;;;;20.63;19.33;;;;;;;6.47;100.00;101858.16;5047762;28;20052;-80
2022/05/06 04:15:09;;;;;;;23.42;22.00;;;;;;;6.55;100.00;101864.38;5046715;28;20083;-81
2022/05/06 04:17:44;;;;;;;25.55;24.05;;;;;;;6.48;100.00;101872.53;5081529;28;20037;-79
2022/05/06 04:23:33;;;;;;;33.03;31.15;;;;;;;6.56;100.00;101866.84;5046470;28;20047;-79
2022/05/06 04:26:13;;;;;;;33.00;31.02;;;;;;;6.59;100.00;101868.28;5053526;28;20056;-79
2022/05/06 04:28:54;;;;;;;38.88;36.67;;;;;;;6.59;100.00;101876.41;5046672;28;20052;-80
2022/05/06 04:31:32;;;;;;;40.97;38.67;;;;;;;6.64;100.00;101877.38;5070451;28;20469;-79
2022/05/06 04:34:05;;;;;;;47.28;44.53;;;;;;;6.67;100.00;101870.69;5039944;28;20053;-80
2022/05/06 04:36:40;;;;;;;49.42;46.70;;;;;;;6.74;100.00;101882.25;5079167;28;20056;-80
2022/05/06 04:39:16;;;;;;;54.15;51.15;;;;;;;6.76;100.00;101882.84;5069037;28;20037;-80
2022/05/06 04:41:53;;;;;;;62.95;59.42;;;;;;;6.81;100.00;101882.19;5052000;28;20382;-79
2022/05/06 04:44:34;;;;;;;68.13;64.40;;;;;;;6.87;100.00;101877.75;5079101;28;20060;-80
2022/05/06 04:47:09;;;;;;;73.15;69.13;;;;;;;6.90;100.00;101878.13;5072315;28;20079;-79
2022/05/06 04:49:43;;;;;;;82.43;77.90;;;;;;;6.92;100.00;101869.81;5050573;28;20382;-80
2022/05/06 04:52:11;;;;;;;107.38;101.57;;;;;;;7.01;100.00;101875.72;5049063;28;20396;-80
2022/05/06 04:54:45;;;;;;;131.73;124.63;;;;;;;7.04;100.00;101880.69;5055030;28;20067;-80
2022/05/06 04:57:18;;;;;;;180.18;170.35;;;;;;;7.12;100.00;101878.47;5060431;28;20397;-80
2022/05/06 04:59:52;;;;;;;213.30;201.52;;;;;;;7.31;100.00;101881.19;5055236;28;20045;-80
2022/05/06 05:02:27;;;;;;;392.25;368.88;;;;;;;8.02;100.00;101884.13;5049179;28;20048;-80
2022/05/06 05:04:58;;;;;;;470.77;441.67;;;;;;;8.88;100.00;101882.84;5065959;28;20396;-80
2022/05/06 05:07:35;;;;;;;581.15;544.35;;;;;;;9.63;100.00;101875.66;5041410;28;20052;-80
2022/05/06 05:10:11;;;;;;;222.18;210.20;;;;;;;10.54;100.00;101869.28;5047218;28;20048;-80
2022/05/06 05:12:44;;;;;;;67.60;63.83;;;;;;;11.31;100.00;101866.69;5051208;28;20579;-81
2022/05/06 05:15:13;;;;;;;35.22;33.20;;;;;;;11.92;100.00;101871.94;5048306;28;20048;-80
2022/05/06 05:17:48;;;;;;;16.50;15.40;;;;;;;12.52;100.00;101866.38;5058134;28;20102;-80
2022/05/06 05:20:21;;;;;;;10.07;9.27;;;;;;;12.90;100.00;101864.41;5060340;28;20037;-80
2022/05/06 05:22:57;;;;;;;7.35;6.65;;;;;;;13.03;100.00;101863.91;5053432;28;20045;-80
2022/05/06 05:25:32;;;;;;;6.45;5.10;;;;;;;12.85;100.00;101865.19;5047539;28;20049;-80
2022/05/06 05:28:06;;;;;;;5.18;3.95;;;;;;;12.04;100.00;101871.78;5045681;28;20045;-81
2022/05/06 05:30:40;;;;;;;6.38;4.25;;;;;;;11.66;100.00;101873.59;5043506;28;20053;-80
2022/05/06 05:33:15;;;;;;;7.22;4.63;;;;;;;11.17;100.00;101871.69;5043609;28;20053;-81
2022/05/06 05:35:53;;;;;;;6.82;4.38;;;;;;;11.04;100.00;101867.47;5040775;28;20072;-80
2022/05/06 05:38:27;;;;;;;6.55;4.30;;;;;;;10.68;100.00;101877.91;5046549;28;20053;-81
2022/05/06 05:41:02;;;;;;;6.93;4.60;;;;;;;10.64;100.00;101879.47;5045985;28;20049;-79
2022/05/06 05:49:17;;;;;;;6.38;4.25;;;;;;;10.69;100.00;101882.28;5058989;28;20068;-79
2022/05/06 05:51:50;;;;;;;8.10;4.70;;;;;;;10.61;100.00;101879.97;5058597;28;20056;-79
2022/05/06 05:54:25;;;;;;;6.60;4.57;;;;;;;10.65;100.00;101881.94;5046176;28;20055;-79
2022/05/06 05:56:59;;;;;;;6.28;5.18;;;;;;;10.70;100.00;101881.19;5047670;28;20048;-79
2022/05/06 05:59:34;;;;;;;6.95;5.55;;;;;;;10.65;100.00;101873.78;5045917;28;20041;-80
2022/05/06 06:02:10;;;;;;;7.10;5.97;;;;;;;10.79;100.00;101887.84;5046349;28;20053;-82
2022/05/06 06:04:47;;;;;;;7.22;6.53;;;;;;;10.79;100.00;101879.69;5043179;28;20487;-80
2022/05/06 06:07:18;;;;;;;7.72;6.95;;;;;;;10.99;100.00;101884.59;5059729;28;20374;-80
2022/05/06 06:09:56;;;;;;;8.80;8.00;;;;;;;10.98;100.00;101879.38;5063429;28;20032;-80
2022/05/06 06:12:24;;;;;;;8.32;7.63;;;;;;;11.07;100.00;101875.13;5076195;28;20052;-79
2022/05/06 06:14:58;;;;;;;8.32;7.53;;;;;;;11.14;100.00;101880.38;5047818;28;20057;-78
2022/05/06 06:17:31;;;;;;;9.05;8.25;;;;;;;11.16;100.00;101880.97;5043045;28;20052;-79
2022/05/06 06:20:07;;;;;;;8.80;8.00;;;;;;;11.08;100.00;101878.69;5049760;28;20060;-79
2022/05/06 06:22:45;;;;;;;8.77;7.97;;;;;;;11.32;100.00;101881.97;5042337;28;20044;-79
2022/05/06 06:25:18;;;;;;;9.93;9.13;;;;;;;11.17;100.00;101880.72;5055330;28;20044;-79
2022/05/06 06:27:55;;;;;;;10.93;10.02;;;;;;;11.44;100.00;101884.56;5043096;28;20048;-79
2022/05/06 06:30:29;;;;;;;10.45;9.60;;;;;;;11.65;100.00;101889.13;5050196;28;20060;-79
2022/05/06 06:33:01;;;;;;;11.80;10.90;;;;;;;11.61;100.00;101879.81;5044787;28;20060;-79
2022/05/06 06:35:35;;;;;;;13.88;12.88;;;;;;;11.85;100.00;101891.22;5041498;28;20397;-79
2022/05/06 06:38:09;;;;;;;16.30;15.20;;;;;;;11.77;100.00;101883.53;5041196;28;20049;-78
2022/05/06 06:40:44;;;;;;;15.50;14.40;;;;;;;11.95;100.00;101881.53;5045216;28;20037;-79
2022/05/06 06:43:15;;;;;;;15.45;14.40;;;;;;;12.08;100.00;101890.09;5041233;28;20055;-80
2022/05/06 06:46:05;;;;;;;17.60;16.40;;;;;;;12.00;100.00;101887.00;5048252;28;20123;-79
2022/05/06 06:48:57;;;;;;;13.30;12.30;;;;;;;12.06;100.00;101886.81;5064326;28;20057;-79
2022/05/06 06:51:44;;;;;;;11.27;10.38;;;;;;;12.08;100.00;101870.16;5046764;28;20041;-79
2022/05/06 06:54:17;;;;;;;9.80;9.00;;;;;;;12.25;100.00;101889.16;5071136;28;20041;-79
2022/05/06 06:56:50;;;;;;;10.73;9.82;;;;;;;12.23;100.00;101888.56;5042994;28;20052;-79
2022/05/06 06:59:23;;;;;;;11.02;10.15;;;;;;;12.30;100.00;101893.81;5066038;28;20036;-79
2022/05/06 07:01:57;;;;;;;10.85;9.95;;;;;;;12.09;100.00;101893.66;5040781;28;20060;-79
2022/05/06 07:04:30;;;;;;;8.32;7.63;;;;;;;11.96;100.00;101881.28;5069557;28;20051;-81
2022/05/06 07:12:47;;;;;;;7.63;6.93;;;;;;;12.12;100.00;101890.41;5063489;28;20052;-78
2022/05/06 07:15:20;;;;;;;7.28;6.57;;;;;;;12.27;100.00;101897.88;5072931;28;20044;-80
2022/05/06 07:17:53;;;;;;;7.20;6.50;;;;;;;12.33;100.00;101902.31;5065601;28;20047;-79
2022/05/06 07:20:26;;;;;;;7.50;6.80;;;;;;;12.33;100.00;101898.75;5069852;28;20044;-79
2022/05/06 07:23:01;;;;;;;6.97;6.32;;;;;;;12.26;100.00;101901.69;5069702;28;20051;-79
2022/05/06 07:25:34;;;;;;;7.13;6.43;;;;;;;12.45;100.00;101899.38;5036605;28;20052;-79
2022/05/06 07:28:08;;;;;;;6.72;6.03;;;;;;;12.47;100.00;101901.84;5065585;28;20392;-79
2022/05/06 07:30:41;;;;;;;6.97;6.28;;;;;;;12.56;100.00;101895.63;5049253;28;20064;-79
2022/05/06 07:33:15;;;;;;;7.47;6.78;;;;;;;12.76;100.00;101896.84;5046668;28;20045;-79
2022/05/06 07:35:48;;;;;;;7.68;6.97;;;;;;;12.92;100.00;101905.94;5072145;28;20044;-79
2022/05/06 07:38:22;;;;;;;8.18;7.47;;;;;;;12.92;100.00;101906.75;5065606;28;20076;-79
2022/05/06 07:40:55;;;;;;;6.55;5.93;;;;;;;12.91;100.00;101899.66;5070150;28;20051;-78
2022/05/06 07:43:29;;;;;;;6.50;5.90;;;;;;;13.13;100.00;101903.31;5068319;28;20048;-79
2022/05/06 07:46:02;;;;;;;6.50;5.68;;;;;;;13.22;100.00;101894.31;5064783;28;20170;-79
2022/05/06 07:48:35;;;;;;;5.00;4.50;;;;;;;13.17;100.00;101899.75;5076377;28;20526;-79
2022/05/06 07:51:08;;;;;;;5.28;4.45;;;;;;;13.36;100.00;101902.06;5046140;28;20044;-77
2022/05/06 07:53:43;;;;;;;4.53;4.13;;;;;;;13.53;100.00;101910.03;5051250;28;20048;-80
2022/05/06 07:56:16;;;;;;;4.38;3.65;;;;;;;13.54;100.00;101898.81;5062513;28;20045;-79
2022/05/06 07:58:49;;;;;;;4.55;3.70;;;;;;;13.35;100.00;101900.38;5057480;28;20036;-80
2022/05/06 08:04:32;;;;;;;4.57;3.50;;;;;;;13.58;100.00;101899.09;5063025;28;20036;-80
2022/05/06 08:04:34;;;;;;;5.38;3.88;;;;;;;13.25;100.00;101895.69;5065554;28;20408;-79
2022/05/06 08:07:08;;;;;;;4.88;3.80;;;;;;;13.58;100.00;101885.44;5068559;28;20381;-79
2022/05/06 08:09:43;;;;;;;5.38;4.25;;;;;;;13.75;100.00;101891.47;5066115;28;20036;-80
2022/05/06 08:12:16;;;;;;;5.25;4.20;;;;;;;13.90;100.00;101887.91;5051591;28;20509;-79
2022/05/06 08:14:49;;;;;;;5.78;4.28;;;;;;;14.05;100.00;101889.03;5067307;28;20045;-79
2022/05/06 08:17:23;;;;;;;4.50;3.85;;;;;;;14.08;100.00;101885.75;5048348;28;20044;-79
2022/05/06 08:19:51;;;;;;;3.97;3.05;;;;;;;14.06;100.00;101885.22;5049901;28;20048;-79
2022/05/06 08:22:25;;;;;;;5.35;3.45;;;;;;;14.19;100.00;101884.63;5068268;28;20043;-80
2022/05/06 08:25:02;;;;;;;4.18;3.00;;;;;;;14.10;100.00;101887.13;5044808;28;20049;-79
2022/05/06 08:27:37;;;;;;;6.15;3.03;;;;;;;14.03;100.00;101897.53;5071133;28;20385;-79
2022/05/06 08:30:13;;;;;;;5.07;3.00;;;;;;;14.14;100.00;101892.03;5063945;28;20059;-79
2022/05/06 08:32:46;;;;;;;5.03;3.00;;;;;;;14.04;100.00;101887.38;5051136;28;20048;-80
2022/05/06 08:35:20;;;;;;;4.35;2.75;;;;;;;13.95;100.00;101889.84;5047566;28;20053;-81
2022/05/06 08:37:53;;;;;;;3.85;2.80;;;;;;;14.21;100.00;101882.47;5053214;28;20051;-79
2022/05/06 08:40:25;;;;;;;5.22;2.90;;;;;;;14.36;100.00;101875.31;5048942;28;20041;-81
2022/05/06 08:42:59;;;;;;;5.07;3.15;;;;;;;14.51;100.00;101880.75;5051135;28;20048;-80
2022/05/06 08:51:07;;;;;;;5.07;3.00;;;;;;;14.50;100.00;101873.66;5065211;28;20051;-79
2022/05/06 08:53:41;;;;;;;5.55;3.13;;;;;;;14.70;100.00;101878.28;5045602;28;20056;-80
2022/05/06 08:56:16;;;;;;;4.53;3.20;;;;;;;14.94;100.00;101877.66;5066850;28;20082;-81
2022/05/06 08:58:49;;;;;;;5.07;3.08;;;;;;;14.99;100.00;101861.19;5043585;28;20045;-78
2022/05/06 09:01:25;;;;;;;5.10;3.03;;;;;;;15.01;100.00;101871.88;5041692;28;20408;-79
2022/05/06 09:04:01;;;;;;;5.72;3.10;;;;;;;15.15;100.00;101867.44;5060620;28;20044;-79
2022/05/06 09:06:34;;;;;;;4.25;2.80;;;;;;;15.33;100.00;101867.88;5038392;28;20063;-78
2022/05/06 09:09:03;;;;;;;4.82;2.97;;;;;;;15.13;100.00;101864.97;5056260;28;20045;-80
2022/05/06 09:17:20;;;;;;;5.20;3.13;;;;;;;15.34;100.00;101862.09;5064793;28;20501;-80
2022/05/06 09:19:49;;;;;;;5.55;3.30;;;;;;;15.44;100.00;101862.06;5042265;28;20044;-77
2022/05/06 09:22:17;;;;;;;5.47;2.80;;;;;;;15.36;100.00;101864.59;5067593;28;20044;-77
2022/05/06 09:24:54;;;;;;;4.97;3.10;;;;;;;15.69;100.00;101864.91;5056975;28;20480;-79
2022/05/06 09:27:24;;;;;;;4.75;2.90;;;;;;;15.40;100.00;101866.47;5040587;28;20053;-80
2022/05/06 09:29:57;;;;;;;4.63;2.60;;;;;;;15.57;100.00;101860.59;5028320;28;20075;-80
2022/05/06 09:32:31;;;;;;;4.15;2.80;;;;;;;15.68;100.00;101861.34;5047867;28;20040;-79
2022/05/06 09:35:13;;;;;;;5.03;2.80;;;;;;;15.84;100.00;101855.75;5045637;28;20050;-80
2022/05/06 09:37:48;;;;;;;5.15;2.80;;;;;;;16.02;100.00;101865.22;5025927;28;20056;-79
2022/05/06 09:40:23;;;;;;;3.45;2.20;;;;;;;16.26;100.00;101862.56;5053524;28;20363;-79
2022/05/06 09:43:01;;;;;;;6.22;2.83;;;;;;;16.47;100.00;101868.66;5036186;28;20051;-79
2022/05/06 09:45:37;;;;;;;4.38;2.60;;;;;;;16.33;100.00;101866.56;5025843;28;20052;-80
2022/05/06 09:48:12;;;;;;;4.63;2.80;;;;;;;16.81;100.00;101860.28;5052209;28;20048;-80
2022/05/06 09:50:47;;;;;;;4.43;2.55;;;;;;;17.05;100.00;101858.66;5045115;28;20052;-78
2022/05/06 09:53:16;;;;;;;5.13;2.75;;;;;;;16.82;100.00;101858.34;5028791;28;20060;-80
2022/05/06 09:55:49;;;;;;;5.35;2.80;;;;;;;16.83;100.00;101865.50;5048403;28;20052;-80
2022/05/06 09:58:24;;;;;;;4.05;2.47;;;;;;;17.02;100.00;101854.56;5028035;28;20056;-79
2022/05/06 10:00:57;;;;;;;3.67;2.42;;;;;;;16.96;100.00;101851.06;5046503;28;20056;-80
2022/05/06 10:03:30;;;;;;;4.00;2.38;;;;;;;16.79;100.00;101854.28;5035426;28;20055;-80
2022/05/06 10:06:06;;;;;;;4.03;2.40;;;;;;;16.70;100.00;101856.03;5047136;28;20044;-80
2022/05/06 10:08:35;;;;;;;5.35;2.90;;;;;;;16.49;100.00;101848.03;5048267;28;20044;-79
2022/05/06 10:11:12;;;;;;;5.05;2.60;;;;;;;16.32;100.00;101853.97;5048299;28;20131;-80
2022/05/06 10:13:45;;;;;;;4.95;2.90;;;;;;;16.23;100.00;101847.47;5050089;28;20472;-79
2022/05/06 10:16:18;;;;;;;3.92;2.40;;;;;;;15.90;100.00;101849.94;5031757;28;21495;-80
2022/05/06 10:18:53;;;;;;;3.90;2.47;;;;;;;15.94;100.00;101848.28;5045266;28;20067;-80
2022/05/06 10:21:47;;;;;;;4.35;2.45;;;;;;;16.12;100.00;101834.94;5034936;28;20668;-79
2022/05/06 10:24:21;;;;;;;4.93;2.63;;;;;;;15.94;100.00;101833.75;5048780;28;20115;-79
2022/05/06 10:26:54;;;;;;;5.78;2.70;;;;;;;16.38;100.00;101838.25;5050737;28;20124;-79
2022/05/06 10:32:56;;;;;;;4.15;2.47;;;;;;;17.22;100.00;101837.00;5026108;28;20091;-81
2022/05/06 10:35:44;;;;;;;3.33;2.10;;;;;;;17.23;96.87;101843.31;5027099;28;20057;-80
2022/05/06 10:38:22;;;;;;;4.18;2.20;;;;;;;17.68;94.79;101828.03;5032386;28;20114;-82
2022/05/06 10:40:58;;;;;;;3.28;2.03;;;;;;;17.71;98.02;101821.09;5059477;28;20048;-80
2022/05/06 10:43:51;;;;;;;3.65;2.15;;;;;;;17.80;99.26;101821.22;5031186;28;20052;-80
2022/05/06 10:46:34;;;;;;;4.20;2.47;;;;;;;17.91;89.93;101813.63;5057050;28;20382;-81
2022/05/06 10:49:52;;;;;;;3.58;2.50;;;;;;;18.15;89.47;101816.25;5030352;28;20060;-80
2022/05/06 10:52:53;;;;;;;5.70;2.65;;;;;;;18.42;100.00;101806.38;5049013;28;20060;-79
2022/05/06 10:55:23;;;;;;;5.00;2.85;;;;;;;18.30;84.19;101802.19;5031252;28;20595;-80
2022/05/06 10:58:13;;;;;;;4.25;2.45;;;;;;;18.25;86.49;101801.47;5047945;28;20055;-79
2022/05/06 11:00:42;;;;;;;5.07;2.70;;;;;;;18.41;83.99;101799.22;5053719;28;20064;-80
2022/05/06 11:03:20;;;;;;;5.75;2.72;;;;;;;18.34;89.87;101805.16;5049386;28;20044;-80
2022/05/06 11:05:54;;;;;;;7.32;3.10;;;;;;;18.13;88.56;101797.28;5050452;28;20048;-80
2022/05/06 11:08:34;;;;;;;4.43;2.53;;;;;;;17.71;94.05;101806.53;5050022;28;20059;-80
2022/05/06 11:11:16;;;;;;;4.63;2.55;;;;;;;18.06;83.83;101798.78;5040398;28;20408;-82
2022/05/06 11:13:51;;;;;;;5.25;2.50;;;;;;;18.02;92.89;101791.13;5053343;28;20048;-81
2022/05/06 11:16:21;;;;;;;6.45;2.95;;;;;;;17.89;83.15;101796.59;5058601;28;20053;-80
2022/05/06 11:19:00;;;;;;;4.60;2.40;;;;;;;17.82;82.93;101791.47;5032592;28;20056;-79
2022/05/06 11:21:34;;;;;;;5.15;2.67;;;;;;;17.93;93.76;101797.66;5047343;28;20048;-80
2022/05/06 11:24:16;;;;;;;6.97;2.92;;;;;;;17.61;92.22;101793.75;5002251;28;20110;-80
2022/05/06 11:26:44;;;;;;;5.40;2.63;;;;;;;18.00;89.31;101787.84;5044859;28;20473;-80
2022/05/06 11:29:18;;;;;;;4.97;2.65;;;;;;;18.29;86.17;101785.97;5030040;28;20048;-79
2022/05/06 11:31:51;;;;;;;5.05;2.80;;;;;;;18.44;80.41;101780.16;5048768;28;20048;-80
2022/05/06 11:34:22;;;;;;;5.43;2.60;;;;;;;18.55;80.43;101788.19;5045459;28;20041;-80
2022/05/06 11:36:55;;;;;;;4.60;2.80;;;;;;;18.29;74.07;101774.94;5053724;28;20048;-80
2022/05/06 11:39:33;;;;;;;5.13;2.70;;;;;;;18.52;82.22;101784.13;5034438;28;20056;-79
2022/05/06 11:42:24;;;;;;;5.22;2.97;;;;;;;18.33;78.83;101776.78;5034682;28;20068;-79
2022/05/06 11:47:44;;;;;;;4.18;2.30;;;;;;;18.46;72.95;101769.66;5032281;28;20428;-80
2022/05/06 11:50:14;;;;;;;5.30;2.50;;;;;;;18.59;70.46;101756.97;5049669;28;20064;-80
2022/05/06 11:52:48;;;;;;;4.78;2.60;;;;;;;18.67;74.12;101763.69;5043902;28;20052;-80
2022/05/06 11:55:22;;;;;;;5.07;2.92;;;;;;;18.58;70.23;101760.84;5027178;28;20053;-79
2022/05/06 11:57:56;;;;;;;4.75;2.50;;;;;;;18.85;75.00;101751.72;5027967;28;20052;-80
2022/05/06 12:00:25;;;;;;;10.68;3.70;;;;;;;19.12;70.75;101761.06;5051190;28;20586;-80
2022/05/06 12:03:04;;;;;;;7.32;2.60;;;;;;;19.27;66.37;101756.31;5030536;28;20056;-80
2022/05/06 12:05:40;;;;;;;4.53;2.30;;;;;;;19.69;68.78;101752.22;5052909;28;20055;-80
2022/05/06 12:08:25;;;;;;;3.47;1.90;;;;;;;19.93;64.89;101758.53;5045643;28;20056;-78
2022/05/06 12:11:00;;;;;;;5.20;2.58;;;;;;;19.42;62.76;101744.09;5033870;28;20044;-80
2022/05/06 12:13:36;;;;;;;3.58;2.40;;;;;;;19.12;73.76;101750.00;5047548;28;20498;-79
2022/05/06 12:16:12;;;;;;;4.70;2.30;;;;;;;18.41;69.08;101755.13;5054006;28;20063;-79
2022/05/06 12:18:58;;;;;;;4.78;2.40;;;;;;;18.84;74.69;101744.56;5045835;28;20047;-79
2022/05/06 12:21:28;;;;;;;4.07;2.20;;;;;;;18.46;75.78;101747.59;5032847;28;20063;-79
2022/05/06 12:24:02;;;;;;;2.95;2.00;;;;;;;18.41;72.33;101744.09;5003149;28;21032;-79
2022/05/06 12:26:35;;;;;;;4.00;2.35;;;;;;;18.27;73.40;101755.13;5032831;28;20670;-80
2022/05/06 12:29:20;;;;;;;3.92;2.30;;;;;;;18.60;79.68;101755.84;5024248;28;20456;-80
2022/05/06 12:31:48;;;;;;;3.88;2.05;;;;;;;19.03;82.04;101749.94;5047215;28;20059;-79
2022/05/06 12:34:28;;;;;;;3.20;1.90;;;;;;;19.20;63.25;101729.16;5049151;28;20045;-79